Time,TemperatureF,DewpointF,PressureIn,WindDirection,WindDirectionDegrees,WindSpeedMPH,WindSpeedGustMPH,Humidity,HourlyPrecipIn,Conditions,Clouds,dailyrainin,SoftwareType,DateUTC
2013-01-16 00:08:00,7.7,4.0,30.80,West,265,1.0,-999.0,83,-99.99,,,0.00,weatherlink.com 1.10,2013-01-16 07:08:00,
2013-01-16 00:23:00,7.7,4.0,30.79,West,265,0.0,-999.0,83,-99.99,,,0.00,weatherlink.com 1.10,2013-01-16 07:23:00,
2013-01-16 00:38:00,7.6,4.0,30.79,West,265,0.0,-999.0,83,-99.99,,,0.00,weatherlink.com 1.10,2013-01-16 07:38:00,
2013-01-16 00:53:00,7.5,3.0,30.79,West,265,0.0,-999.0,83,-99.99,,,0.00,weatherlink.com 1.10,2013-01-16 07:53:00,
2013-01-16 01:08:00,7.4,3.0,30.80,West,265,0.0,-999.0,83,-99.99,,,0.00,weatherlink.com 1.10,2013-01-16 08:08:00,
2013-01-16 01:23:00,7.4,4.0,30.78,West,265,0.0,-999.0,84,-99.99,,,0.00,weatherlink.com 1.10,2013-01-16 08:23:00,
2013-01-16 01:38:00,7.6,4.0,30.79,West,265,0.0,-999.0,83,-99.99,,,0.00,weatherlink.com 1.10,2013-01-16 08:38:00,
2013-01-16 01:53:00,7.7,4.0,30.79,West,265,0.0,-999.0,83,-99.99,,,0.00,weatherlink.com 1.10,2013-01-16 08:53:00,
2013-01-16 02:08:00,7.7,4.0,30.79,West,265,0.0,-999.0,83,-99.99,,,0.00,weatherlink.com 1.10,2013-01-16 09:08:00,
2013-01-16 02:23:00,7.8,4.0,30.79,West,265,0.0,-999.0,83,-99.99,,,0.00,weatherlink.com 1.10,2013-01-16 09:23:00,
2013-01-16 02:38:00,8.0,4.0,30.79,West,265,0.0,-999.0,83,-99.99,,,0.00,weatherlink.com 1.10,2013-01-16 09:38:00,
2013-01-16 02:53:00,8.0,4.0,30.80,West,265,0.0,-999.0,83,-99.99,,,0.00,weatherlink.com 1.10,2013-01-16 09:53:00,
2013-01-16 03:08:00,8.0,4.0,30.79,West,265,0.0,-999.0,83,-99.99,,,0.00,weatherlink.com 1.10,2013-01-16 10:08:00,
2013-01-16 03:23:00,7.9,4.0,30.80,West,265,0.0,-999.0,83,-99.99,,,0.00,weatherlink.com 1.10,2013-01-16 10:23:00,
2013-01-16 03:38:00,7.8,4.0,30.80,West,265,0.0,-999.0,83,-99.99,,,0.00,weatherlink.com 1.10,2013-01-16 10:38:00,
2013-01-16 03:53:00,7.7,4.0,30.79,West,265,0.0,-999.0,83,-99.99,,,0.00,weatherlink.com 1.10,2013-01-16 10:53:00,
2013-01-16 04:08:00,7.7,4.0,30.79,West,265,1.0,-999.0,84,-99.99,,,0.00,weatherlink.com 1.10,2013-01-16 11:08:00,
2013-01-16 04:23:00,7.6,4.0,30.78,West,265,0.0,-999.0,84,-99.99,,,0.00,weatherlink.com 1.10,2013-01-16 11:23:00,
2013-01-16 04:38:00,7.5,3.0,30.78,West,265,0.0,-999.0,83,-99.99,,,0.00,weatherlink.com 1.10,2013-01-16 11:38:00,
2013-01-16 04:53:00,7.4,4.0,30.77,West,265,0.0,-999.0,84,-99.99,,,0.00,weatherlink.com 1.10,2013-01-16 11:53:00,
2013-01-16 05:08:00,7.4,4.0,30.77,West,265,0.0,-999.0,84,-99.99,,,0.00,weatherlink.com 1.10,2013-01-16 12:08:00,
2013-01-16 05:23:00,7.5,4.0,30.77,West,265,2.0,-999.0,84,-99.99,,,0.00,weatherlink.com 1.10,2013-01-16 12:23:00,
2013-01-16 05:38:00,7.6,4.0,30.77,West,265,1.0,-999.0,84,-99.99,,,0.00,weatherlink.com 1.10,2013-01-16 12:38:00,
2013-01-16 05:53:00,7.4,3.0,30.77,West,265,1.0,-999.0,83,-99.99,,,0.00,weatherlink.com 1.10,2013-01-16 12:53:00,
2013-01-16 06:08:00,7.0,3.0,30.77,West,265,0.0,-999.0,83,-99.99,,,0.00,weatherlink.com 1.10,2013-01-16 13:08:00,
2013-01-16 06:23:00,6.9,3.0,30.77,West,265,0.0,-999.0,83,-99.99,,,0.00,weatherlink.com 1.10,2013-01-16 13:23:00,
2013-01-16 06:38:00,6.4,2.0,30.77,West,265,1.0,-999.0,83,-99.99,,,0.00,weatherlink.com 1.10,2013-01-16 13:38:00,
2013-01-16 06:53:00,5.8,2.0,30.78,West,265,0.0,-999.0,83,-99.99,,,0.00,weatherlink.com 1.10,2013-01-16 13:53:00,
2013-01-16 07:08:00,3.8,-1.0,30.78,West,265,0.0,-999.0,82,-99.99,,,0.00,weatherlink.com 1.10,2013-01-16 14:08:00,
2013-01-16 07:23:00,3.4,0.0,30.78,West,265,0.0,-999.0,84,-99.99,,,0.00,weatherlink.com 1.10,2013-01-16 14:23:00,
2013-01-16 07:38:00,3.7,0.0,30.78,West,265,0.0,-999.0,84,-99.99,,,0.00,weatherlink.com 1.10,2013-01-16 14:38:00,
2013-01-16 07:53:00,3.9,0.0,30.79,West,265,0.0,-999.0,84,-99.99,,,0.00,weatherlink.com 1.10,2013-01-16 14:53:00,
2013-01-16 08:08:00,3.8,0.0,30.79,West,265,0.0,-999.0,84,-99.99,,,0.00,weatherlink.com 1.10,2013-01-16 15:08:00,
2013-01-16 08:23:00,4.0,0.0,30.80,West,265,0.0,-999.0,84,-99.99,,,0.00,weatherlink.com 1.10,2013-01-16 15:23:00,
2013-01-16 08:38:00,4.1,0.0,30.80,West,265,0.0,-999.0,84,-99.99,,,0.00,weatherlink.com 1.10,2013-01-16 15:38:00,
2013-01-16 08:53:00,5.9,2.0,30.81,West,265,0.0,-999.0,85,-99.99,,,0.00,weatherlink.com 1.10,2013-01-16 15:53:00,
2013-01-16 09:08:00,7.1,3.0,30.81,West,264,2.0,-999.0,84,-99.99,,,0.00,weatherlink.com 1.10,2013-01-16 16:08:00,
2013-01-16 09:23:00,5.8,1.0,30.82,West,265,0.0,-999.0,82,-99.99,,,0.00,weatherlink.com 1.10,2013-01-16 16:23:00,
2013-01-16 09:38:00,6.3,2.0,30.82,West,265,0.0,-999.0,83,-99.99,,,0.00,weatherlink.com 1.10,2013-01-16 16:38:00,
2013-01-16 09:53:00,7.8,4.0,30.82,West,265,0.0,-999.0,83,-99.99,,,0.00,weatherlink.com 1.10,2013-01-16 16:53:00,
2013-01-16 10:08:00,8.9,5.0,30.82,West,265,0.0,-999.0,82,-99.99,,,0.00,weatherlink.com 1.10,2013-01-16 17:08:00,
2013-01-16 10:23:00,9.9,5.0,30.82,West,265,0.0,-999.0,81,-99.99,,,0.00,weatherlink.com 1.10,2013-01-16 17:23:00,
2013-01-16 10:38:00,11.3,7.0,30.81,West,265,0.0,-999.0,81,-99.99,,,0.00,weatherlink.com 1.10,2013-01-16 17:38:00,
2013-01-16 10:53:00,13.6,9.0,30.81,West,265,0.0,-999.0,80,-99.99,,,0.00,weatherlink.com 1.10,2013-01-16 17:53:00,
2013-01-16 11:08:00,12.9,8.0,30.80,West,265,0.0,-999.0,79,-99.99,,,0.00,weatherlink.com 1.10,2013-01-16 18:08:00,
2013-01-16 11:23:00,12.3,7.0,30.80,West,265,1.0,-999.0,79,-99.99,,,0.00,weatherlink.com 1.10,2013-01-16 18:23:00,
2013-01-16 11:38:00,14.0,8.0,30.79,West,265,1.0,-999.0,78,-99.99,,,0.01,weatherlink.com 1.10,2013-01-16 18:38:00,
2013-01-16 11:53:00,13.2,7.0,30.79,West,265,2.0,-999.0,77,-99.99,,,0.02,weatherlink.com 1.10,2013-01-16 18:53:00,
2013-01-16 12:08:00,13.5,8.0,30.78,West,265,0.0,-999.0,77,-99.99,,,0.03,weatherlink.com 1.10,2013-01-16 19:08:00,
2013-01-16 12:23:00,14.5,9.0,30.77,West,265,0.0,-999.0,77,-99.99,,,0.03,weatherlink.com 1.10,2013-01-16 19:23:00,
2013-01-16 12:38:00,15.4,9.0,30.76,West,265,0.0,-999.0,75,-99.99,,,0.04,weatherlink.com 1.10,2013-01-16 19:38:00,
2013-01-16 12:53:00,16.6,10.0,30.76,West,265,0.0,-999.0,75,-99.99,,,0.05,weatherlink.com 1.10,2013-01-16 19:53:00,
2013-01-16 13:08:00,18.0,11.0,30.75,West,265,0.0,-999.0,74,-99.99,,,0.06,weatherlink.com 1.10,2013-01-16 20:08:00,
2013-01-16 13:23:00,16.0,8.0,30.74,West,265,0.0,-999.0,72,-99.99,,,0.07,weatherlink.com 1.10,2013-01-16 20:23:00,
2013-01-16 13:38:00,14.6,8.0,30.74,West,265,0.0,-999.0,74,-99.99,,,0.07,weatherlink.com 1.10,2013-01-16 20:38:00,
2013-01-16 13:53:00,13.7,7.0,30.74,West,265,1.0,-999.0,75,-99.99,,,0.07,weatherlink.com 1.10,2013-01-16 20:53:00,
2013-01-16 14:08:00,15.7,10.0,30.73,West,265,0.0,-999.0,78,-99.99,,,0.07,weatherlink.com 1.10,2013-01-16 21:08:00,
2013-01-16 14:23:00,15.0,8.0,30.74,West,265,2.0,-999.0,73,-99.99,,,0.08,weatherlink.com 1.10,2013-01-16 21:23:00,
2013-01-16 14:38:00,13.6,7.0,30.73,West,265,1.0,-999.0,75,-99.99,,,0.08,weatherlink.com 1.10,2013-01-16 21:38:00,
2013-01-16 14:53:00,13.9,8.0,30.75,West,265,0.0,-999.0,76,-99.99,,,0.08,weatherlink.com 1.10,2013-01-16 21:53:00,
2013-01-16 15:08:00,14.9,8.0,30.74,West,265,1.0,-999.0,74,-99.99,,,0.08,weatherlink.com 1.10,2013-01-16 22:08:00,
2013-01-16 15:23:00,15.3,8.0,30.74,West,265,0.0,-999.0,74,-99.99,,,0.08,weatherlink.com 1.10,2013-01-16 22:23:00,
2013-01-16 15:38:00,14.4,8.0,30.74,West,265,0.0,-999.0,74,-99.99,,,0.08,weatherlink.com 1.10,2013-01-16 22:38:00,
2013-01-16 15:53:00,15.9,9.0,30.74,West,265,0.0,-999.0,75,-99.99,,,0.08,weatherlink.com 1.10,2013-01-16 22:53:00,
2013-01-16 16:08:00,14.5,8.0,30.75,West,265,0.0,-999.0,74,-99.99,,,0.09,weatherlink.com 1.10,2013-01-16 23:08:00,
2013-01-16 16:23:00,16.7,9.0,30.75,West,265,0.0,-999.0,73,-99.99,,,0.09,weatherlink.com 1.10,2013-01-16 23:23:00,
2013-01-16 16:38:00,14.1,6.0,30.75,West,265,0.0,-999.0,70,-99.99,,,0.09,weatherlink.com 1.10,2013-01-16 23:38:00,
2013-01-16 16:53:00,12.1,5.0,30.76,West,265,0.0,-999.0,74,-99.99,,,0.09,weatherlink.com 1.10,2013-01-16 23:53:00,
2013-01-16 17:08:00,9.9,4.0,30.76,West,265,0.0,-999.0,76,-99.99,,,0.09,weatherlink.com 1.10,2013-01-17 00:08:00,
2013-01-16 17:23:00,7.6,2.0,30.77,West,265,0.0,-999.0,78,-99.99,,,0.09,weatherlink.com 1.10,2013-01-17 00:23:00,
2013-01-16 17:38:00,6.2,1.0,30.77,West,265,1.0,-999.0,78,-99.99,,,0.09,weatherlink.com 1.10,2013-01-17 00:38:00,
2013-01-16 17:53:00,4.6,0.0,30.77,West,265,0.0,-999.0,80,-99.99,,,0.09,weatherlink.com 1.10,2013-01-17 00:53:00,
2013-01-16 18:08:00,3.5,-1.0,30.77,West,265,0.0,-999.0,81,-99.99,,,0.09,weatherlink.com 1.10,2013-01-17 01:08:00,
2013-01-16 18:23:00,2.5,-2.0,30.77,West,265,2.0,-999.0,81,-99.99,,,0.09,weatherlink.com 1.10,2013-01-17 01:23:00,
2013-01-16 18:38:00,2.9,-1.0,30.77,West,265,0.0,-999.0,82,-99.99,,,0.09,weatherlink.com 1.10,2013-01-17 01:38:00,
2013-01-16 18:53:00,1.6,-3.0,30.78,West,265,0.0,-999.0,80,-99.99,,,0.09,weatherlink.com 1.10,2013-01-17 01:53:00,
2013-01-16 19:08:00,1.9,-2.0,30.78,West,265,0.0,-999.0,83,-99.99,,,0.09,weatherlink.com 1.10,2013-01-17 02:08:00,
2013-01-16 19:23:00,0.2,-5.0,30.54,West,265,1.0,-999.0,79,-99.99,,,0.09,weatherlink.com 1.10,2013-01-17 02:23:00,
2013-01-16 19:39:00,-0.8,-5.0,30.55,West,265,1.0,-999.0,82,-99.99,,,0.09,weatherlink.com 1.10,2013-01-17 02:39:00,
2013-01-16 19:53:00,-0.7,-5.0,30.55,West,265,1.0,-999.0,82,-99.99,,,0.09,weatherlink.com 1.10,2013-01-17 02:53:00,
2013-01-16 20:09:00,-0.5,-5.0,30.56,West,265,0.0,-999.0,82,-99.99,,,0.09,weatherlink.com 1.10,2013-01-17 03:09:00,
2013-01-16 20:24:00,-0.5,-5.0,30.55,West,265,0.0,-999.0,82,-99.99,,,0.09,weatherlink.com 1.10,2013-01-17 03:24:00,
2013-01-16 20:39:00,-0.5,-5.0,30.55,West,265,0.0,-999.0,82,-99.99,,,0.09,weatherlink.com 1.10,2013-01-17 03:39:00,
2013-01-16 20:53:00,-1.4,-6.0,30.55,West,265,0.0,-999.0,80,-99.99,,,0.09,weatherlink.com 1.10,2013-01-17 03:53:00,
2013-01-16 21:09:00,-1.4,-6.0,30.55,West,265,1.0,-999.0,81,-99.99,,,0.09,weatherlink.com 1.10,2013-01-17 04:09:00,
2013-01-16 21:24:00,-0.8,-5.0,30.56,West,265,0.0,-999.0,81,-99.99,,,0.09,weatherlink.com 1.10,2013-01-17 04:24:00,
2013-01-16 21:38:00,-1.2,-6.0,30.56,West,265,2.0,-999.0,81,-99.99,,,0.09,weatherlink.com 1.10,2013-01-17 04:38:00,
2013-01-16 21:53:00,-1.5,-6.0,30.56,West,265,1.0,-999.0,82,-99.99,,,0.09,weatherlink.com 1.10,2013-01-17 04:53:00,
2013-01-16 22:09:00,0.0,-4.0,30.56,West,265,0.0,-999.0,84,-99.99,,,0.09,weatherlink.com 1.10,2013-01-17 05:09:00,
2013-01-16 22:23:00,-0.9,-5.0,30.56,West,265,1.0,-999.0,82,-99.99,,,0.09,weatherlink.com 1.10,2013-01-17 05:23:00,
2013-01-16 22:39:00,-1.3,-6.0,30.55,West,265,1.0,-999.0,82,-99.99,,,0.09,weatherlink.com 1.10,2013-01-17 05:39:00,
2013-01-16 22:54:00,-0.7,-5.0,30.54,West,265,0.0,-999.0,82,-99.99,,,0.09,weatherlink.com 1.10,2013-01-17 05:54:00,
2013-01-16 23:09:00,-2.1,-7.0,30.54,West,265,0.0,-999.0,80,-99.99,,,0.09,weatherlink.com 1.10,2013-01-17 06:09:00,
2013-01-16 23:24:00,-3.5,-8.0,30.55,West,265,2.0,-999.0,80,-99.99,,,0.09,weatherlink.com 1.10,2013-01-17 06:24:00,
2013-01-16 23:39:00,-4.6,-9.0,30.55,West,265,0.0,-999.0,80,-99.99,,,0.09,weatherlink.com 1.10,2013-01-17 06:39:00,
2013-01-16 23:53:00,-3.8,-8.0,30.56,West,265,0.0,-999.0,82,-99.99,,,0.09,weatherlink.com 1.10,2013-01-17 06:53:00,